Time;durP1;ratioP1;P1;durP2;ratioP2;P2;SDS_P1;SDS_P2;PMS_P1;PMS_P2;Temp;Humidity;BMP_temperature;BMP_pressure;BME280_temperature;BME280_humidity;BME280_pressure;Samples;Min_cycle;Max_cycle;Signal;HPM_P1;HPM_P2
2022/08/15 00:00:58;;;;;;;7.85;4.05;;;;;;;;;;4897157;29;20067;-70
2022/08/15 00:03:31;;;;;;;10.00;3.83;;;;;;;;;;4895935;29;20460;-70
2022/08/15 00:06:29;;;;;;;11.30;4.55;;;;;;;;;;4911813;29;20056;-70
2022/08/15 00:09:18;;;;;;;9.02;4.78;;;;;;;;;;4937278;29;20547;-71
2022/08/15 00:11:52;;;;;;;7.05;4.68;;;;;;;;;;4949478;29;20051;-70
2022/08/15 00:14:33;;;;;;;8.73;3.60;;;;;;;;;;4905185;29;20812;-71
2022/08/15 00:17:09;;;;;;;6.88;3.78;;;;;;;;;;4904500;29;20059;-72
2022/08/15 00:19:47;;;;;;;7.28;4.57;;;;;;;;;;4950075;28;20063;-71
2022/08/15 00:23:14;;;;;;;7.22;4.82;;;;;;;;;;4944906;28;20047;-70
2022/08/15 00:25:58;;;;;;;9.88;4.57;;;;;;;;;;4953516;28;20554;-71
2022/08/15 00:28:51;;;;;;;8.35;4.68;;;;;;;;;;4920313;29;20417;-71
2022/08/15 00:31:31;;;;;;;9.98;4.70;;;;;;;;;;4940442;28;20059;-72
2022/08/15 00:34:11;;;;;;;13.43;4.80;;;;;;;;;;4953175;28;20051;-72
2022/08/15 00:37:03;;;;;;;9.85;4.95;;;;;;;;;;4953617;28;20059;-71
2022/08/15 00:39:38;;;;;;;9.75;4.75;;;;;;;;;;4952808;28;20051;-71
2022/08/15 00:42:11;;;;;;;10.40;4.72;;;;;;;;;;4952927;28;20070;-71
2022/08/15 00:44:46;;;;;;;8.13;4.50;;;;;;;;;;4937927;28;20124;-71
2022/08/15 00:47:35;;;;;;;10.32;4.70;;;;;;;;;;4901474;29;20060;-69
2022/08/15 00:50:12;;;;;;;8.23;4.10;;;;;;;;;;4911248;29;20444;-70
2022/08/15 00:53:06;;;;;;;10.43;4.68;;;;;;;;;;4912638;29;20535;-70
2022/08/15 00:55:42;;;;;;;11.45;4.35;;;;;;;;;;4899679;29;20071;-70
2022/08/15 00:58:21;;;;;;;9.55;5.00;;;;;;;;;;4952259;28;20047;-70
2022/08/15 01:01:05;;;;;;;11.95;5.00;;;;;;;;;;4961737;28;20160;-70
2022/08/15 01:03:38;;;;;;;12.27;4.72;;;;;;;;;;4968819;28;20063;-71
2022/08/15 01:06:25;;;;;;;12.07;4.22;;;;;;;;;;4971893;28;20410;-71
2022/08/15 01:09:04;;;;;;;8.65;3.90;;;;;;;;;;4933555;29;20393;-70
2022/08/15 01:11:44;;;;;;;10.05;5.43;;;;;;;;;;4933547;29;20504;-71
2022/08/15 01:14:14;;;;;;;;;;;;;;;;;;4934014;29;20072;-71
2022/08/15 01:17:06;;;;;;;11.05;5.53;;;;;;;;;;4933399;29;19923;-71
2022/08/15 01:20:05;;;;;;;13.00;5.40;;;;;;;;;;4952391;29;20078;-71
2022/08/15 01:23:02;;;;;;;10.02;5.43;;;;;;;;;;4933411;29;20167;-71
2022/08/15 01:25:43;;;;;;;11.25;4.95;;;;;;;;;;4933184;29;20052;-71
2022/08/15 01:28:42;;;;;;;14.63;4.85;;;;;;;;;;4950711;28;20059;-71
2022/08/15 01:31:19;;;;;;;10.90;5.00;;;;;;;;;;4952413;29;20193;-71
2022/08/15 01:33:57;;;;;;;11.27;5.65;;;;;;;;;;4952591;29;20066;-71
2022/08/15 01:36:31;;;;;;;9.07;4.75;;;;;;;;;;4925747;29;20497;-71
2022/08/15 01:39:16;;;;;;;11.00;5.22;;;;;;;;;;4920529;29;20055;-71
2022/08/15 01:42:02;;;;;;;9.20;4.60;;;;;;;;;;4932512;29;20049;-71
2022/08/15 01:44:51;;;;;;;9.40;4.90;;;;;;;;;;4946339;29;20051;-71
2022/08/15 01:47:48;;;;;;;14.15;4.90;;;;;;;;;;4990479;28;20058;-71
2022/08/15 01:50:36;;;;;;;12.70;5.25;;;;;;;;;;4990778;28;20518;-71
2022/08/15 01:53:21;;;;;;;11.70;5.00;;;;;;;;;;4993215;28;20494;-70
2022/08/15 01:56:26;;;;;;;12.13;5.80;;;;;;;;;;5009900;28;20050;-71
2022/08/15 01:59:11;;;;;;;11.25;5.43;;;;;;;;;;4929525;29;20112;-71
2022/08/15 02:01:45;;;;;;;11.20;5.18;;;;;;;;;;4907254;29;20561;-70
2022/08/15 02:04:45;;;;;;;18.77;5.75;;;;;;;;;;4932302;29;20058;-70
2022/08/15 02:07:28;;;;;;;12.52;5.03;;;;;;;;;;4932099;29;20567;-71
2022/08/15 02:10:01;;;;;;;12.30;4.78;;;;;;;;;;4897830;29;20051;-72
2022/08/15 02:12:51;;;;;;;11.27;4.75;;;;;;;;;;4899894;29;20408;-71
2022/08/15 02:15:42;;;;;;;10.48;4.00;;;;;;;;;;4901823;29;20451;-73
2022/08/15 02:18:13;;;;;;;8.95;5.05;;;;;;;;;;4931836;29;20051;-71
2022/08/15 02:20:48;;;;;;;7.85;4.68;;;;;;;;;;4913297;29;20048;-72
2022/08/15 02:23:19;;;;;;;9.20;5.03;;;;;;;;;;4931858;29;20047;-72
2022/08/15 02:25:54;;;;;;;10.20;5.05;;;;;;;;;;4883564;29;20065;-72
2022/08/15 02:28:27;;;;;;;10.68;5.15;;;;;;;;;;4912845;29;20063;-71
2022/08/15 02:31:16;;;;;;;10.15;4.60;;;;;;;;;;4872642;29;20047;-71
2022/08/15 02:33:57;;;;;;;10.57;5.15;;;;;;;;;;4944248;29;20059;-71
2022/08/15 02:36:31;;;;;;;11.73;5.32;;;;;;;;;;4902494;29;20063;-72
2022/08/15 02:39:23;;;;;;;10.15;4.72;;;;;;;;;;4950234;28;20059;-72
2022/08/15 02:41:53;;;;;;;11.10;4.97;;;;;;;;;;4903258;29;20048;-72
2022/08/15 02:44:24;;;;;;;7.70;4.28;;;;;;;;;;4893875;29;20059;-72
2022/08/15 02:47:05;;;;;;;8.27;4.55;;;;;;;;;;4912337;29;20071;-71
2022/08/15 02:49:44;;;;;;;10.65;4.70;;;;;;;;;;4916704;29;20486;-70
2022/08/15 02:52:20;;;;;;;7.28;4.45;;;;;;;;;;4893287;29;20056;-71
2022/08/15 02:54:56;;;;;;;7.72;3.75;;;;;;;;;;4894031;29;20067;-72
2022/08/15 02:57:33;;;;;;;6.50;3.03;;;;;;;;;;4893542;29;20059;-72
2022/08/15 03:00:24;;;;;;;4.85;2.88;;;;;;;;;;4898529;29;20056;-71
2022/08/15 03:03:08;;;;;;;3.83;2.13;;;;;;;;;;4898585;29;20062;-70
2022/08/15 03:05:48;;;;;;;4.35;2.22;;;;;;;;;;4886459;29;20049;-72
2022/08/15 03:08:25;;;;;;;5.38;2.65;;;;;;;;;;4912322;29;20109;-71
2022/08/15 03:10:57;;;;;;;3.72;1.90;;;;;;;;;;4912358;29;20067;-71
2022/08/15 03:13:33;;;;;;;6.68;1.83;;;;;;;;;;4897303;29;20063;-71
2022/08/15 03:16:09;;;;;;;4.18;2.53;;;;;;;;;;4880830;29;20044;-71
2022/08/15 03:18:49;;;;;;;4.57;2.00;;;;;;;;;;4927748;29;20052;-70
2022/08/15 03:21:22;;;;;;;4.82;3.00;;;;;;;;;;4949806;29;20051;-70
2022/08/15 03:23:54;;;;;;;2.90;1.73;;;;;;;;;;4944457;29;20056;-70
2022/08/15 03:26:25;;;;;;;5.57;2.47;;;;;;;;;;4911776;29;20048;-70
2022/08/15 03:29:19;;;;;;;5.30;2.03;;;;;;;;;;4923192;29;20206;-70
2022/08/15 03:31:53;;;;;;;3.67;2.00;;;;;;;;;;4930518;29;20055;-69
2022/08/15 03:34:26;;;;;;;;;;;;;;;;;;4950258;29;20519;-70
2022/08/15 03:37:01;;;;;;;3.42;1.85;;;;;;;;;;4965002;28;19922;-70
2022/08/15 03:39:35;;;;;;;3.13;1.73;;;;;;;;;;4949676;29;20051;-69
2022/08/15 03:42:12;;;;;;;3.65;1.80;;;;;;;;;;4930796;29;20059;-70
2022/08/15 03:44:48;;;;;;;4.28;2.28;;;;;;;;;;4949579;28;20051;-69
2022/08/15 03:47:22;;;;;;;4.18;2.10;;;;;;;;;;4930857;29;20048;-69
2022/08/15 03:49:53;;;;;;;5.70;1.80;;;;;;;;;;4911697;29;20060;-70
2022/08/15 03:53:02;;;;;;;5.95;1.70;;;;;;;;;;4908908;29;20472;-70
2022/08/15 03:55:38;;;;;;;4.38;2.30;;;;;;;;;;4905498;29;20056;-69
2022/08/15 03:58:12;;;;;;;5.35;2.00;;;;;;;;;;4889839;29;20057;-69
2022/08/15 04:01:04;;;;;;;3.78;1.50;;;;;;;;;;4874134;29;20415;-69
2022/08/15 04:03:35;;;;;;;3.95;1.95;;;;;;;;;;4874120;29;20117;-69
2022/08/15 04:06:10;;;;;;;4.05;2.03;;;;;;;;;;4874104;29;20065;-69
2022/08/15 04:08:46;;;;;;;7.60;2.30;;;;;;;;;;4904341;29;20532;-69
2022/08/15 04:11:38;;;;;;;9.18;2.55;;;;;;;;;;4867595;29;20636;-69
2022/08/15 04:14:18;;;;;;;5.45;2.08;;;;;;;;;;4885955;29;20056;-70
2022/08/15 04:17:06;;;;;;;5.30;2.30;;;;;;;;;;4876686;29;20057;-68
2022/08/15 04:19:53;;;;;;;3.58;1.60;;;;;;;;;;4873658;29;20057;-69
2022/08/15 04:22:35;;;;;;;5.53;2.08;;;;;;;;;;4892516;29;20057;-69
2022/08/15 04:25:32;;;;;;;6.07;2.03;;;;;;;;;;4892960;29;20059;-68
2022/08/15 04:28:29;;;;;;;5.22;2.00;;;;;;;;;;4895238;29;20057;-68
2022/08/15 04:31:21;;;;;;;5.50;1.98;;;;;;;;;;4894879;29;20060;-66
2022/08/15 04:33:52;;;;;;;6.93;2.20;;;;;;;;;;4892123;29;20048;-66
2022/08/15 04:36:46;;;;;;;4.82;1.73;;;;;;;;;;4919358;29;20052;-66
2022/08/15 04:39:20;;;;;;;6.15;2.38;;;;;;;;;;4876628;29;20053;-68
2022/08/15 04:42:02;;;;;;;5.00;1.15;;;;;;;;;;4910753;29;20452;-68
2022/08/15 04:44:32;;;;;;;5.65;2.40;;;;;;;;;;4907400;29;20060;-67
2022/08/15 04:47:02;;;;;;;7.35;1.80;;;;;;;;;;4909629;29;20072;-68
2022/08/15 04:49:34;;;;;;;4.57;2.58;;;;;;;;;;4907679;29;20078;-68
2022/08/15 04:52:13;;;;;;;5.20;2.22;;;;;;;;;;4909290;29;20056;-67
2022/08/15 04:54:47;;;;;;;3.78;2.45;;;;;;;;;;4921019;29;20052;-68
2022/08/15 04:57:35;;;;;;;2.53;1.23;;;;;;;;;;4949215;28;20401;-67
2022/08/15 05:00:17;;;;;;;8.27;1.92;;;;;;;;;;4929891;29;20063;-67
2022/08/15 05:03:21;;;;;;;5.30;2.22;;;;;;;;;;4875308;29;20057;-67
2022/08/15 05:06:01;;;;;;;8.32;2.03;;;;;;;;;;4826627;29;20090;-68
2022/08/15 05:08:53;;;;;;;7.47;2.28;;;;;;;;;;4848118;29;20054;-68
2022/08/15 05:11:24;;;;;;;4.78;2.00;;;;;;;;;;4839439;29;20058;-67
2022/08/15 05:14:15;;;;;;;5.75;2.05;;;;;;;;;;4831014;29;20058;-68
2022/08/15 05:17:08;;;;;;;7.10;2.13;;;;;;;;;;4843630;29;20069;-66
2022/08/15 05:19:39;;;;;;;5.90;2.20;;;;;;;;;;4866976;29;20057;-68
2022/08/15 05:22:12;;;;;;;5.85;2.08;;;;;;;;;;4839283;29;20053;-68
2022/08/15 05:24:43;;;;;;;8.95;2.03;;;;;;;;;;4839497;29;20057;-68
2022/08/15 05:27:14;;;;;;;3.70;1.33;;;;;;;;;;4839442;29;20418;-68
2022/08/15 05:29:51;;;;;;;6.22;2.22;;;;;;;;;;4815484;29;20058;-69
2022/08/15 05:32:23;;;;;;;4.18;1.77;;;;;;;;;;4821098;29;20057;-67
2022/08/15 05:34:54;;;;;;;8.38;2.25;;;;;;;;;;4820931;29;20058;-68
2022/08/15 05:37:25;;;;;;;3.20;1.80;;;;;;;;;;4803017;29;20065;-68
2022/08/15 05:40:13;;;;;;;6.38;1.98;;;;;;;;;;4838327;29;20065;-68
2022/08/15 05:43:22;;;;;;;4.70;2.13;;;;;;;;;;4820576;29;20054;-68
2022/08/15 05:46:24;;;;;;;4.72;1.85;;;;;;;;;;4798544;29;20063;-69
2022/08/15 05:49:26;;;;;;;4.30;2.10;;;;;;;;;;4819631;29;20054;-65
2022/08/15 05:52:27;;;;;;;3.83;1.83;;;;;;;;;;4820756;29;20051;-68
2022/08/15 05:55:36;;;;;;;8.05;1.90;;;;;;;;;;4810159;29;20647;-65
2022/08/15 05:58:35;;;;;;;3.25;2.15;;;;;;;;;;4802697;29;20209;-66
2022/08/15 06:01:34;;;;;;;4.53;2.08;;;;;;;;;;4820204;29;20054;-66
2022/08/15 06:04:53;;;;;;;4.85;2.17;;;;;;;;;;4820304;29;20046;-67
2022/08/15 06:07:25;;;;;;;6.97;2.03;;;;;;;;;;4797560;29;20067;-67
2022/08/15 06:10:42;;;;;;;3.70;2.08;;;;;;;;;;4802280;29;20059;-67
2022/08/15 06:13:25;;;;;;;5.05;2.00;;;;;;;;;;4802144;29;20065;-67
2022/08/15 06:15:59;;;;;;;5.85;2.03;;;;;;;;;;4813820;29;20062;-67
2022/08/15 06:18:50;;;;;;;4.70;2.08;;;;;;;;;;4835692;29;20054;-66
2022/08/15 06:21:24;;;;;;;5.30;2.00;;;;;;;;;;4801867;29;20555;-67
2022/08/15 06:24:06;;;;;;;3.88;1.90;;;;;;;;;;4817095;29;20054;-67
2022/08/15 06:26:49;;;;;;;4.13;2.10;;;;;;;;;;4826395;29;20042;-66
2022/08/15 06:29:42;;;;;;;6.10;2.15;;;;;;;;;;4820042;29;20055;-67
2022/08/15 06:32:35;;;;;;;3.67;2.00;;;;;;;;;;4838279;29;20061;-67
2022/08/15 06:35:37;;;;;;;4.68;1.95;;;;;;;;;;4838361;29;20058;-67
2022/08/15 06:38:25;;;;;;;6.70;2.33;;;;;;;;;;4812888;29;20061;-68
2022/08/15 06:41:21;;;;;;;4.13;2.25;;;;;;;;;;4834433;29;20061;-68
2022/08/15 06:43:59;;;;;;;6.20;2.20;;;;;;;;;;4838105;29;20514;-68
2022/08/15 06:46:40;;;;;;;4.03;2.15;;;;;;;;;;4848847;29;20053;-67
2022/08/15 06:49:23;;;;;;;3.90;2.42;;;;;;;;;;4875161;29;20068;-68
2022/08/15 06:52:03;;;;;;;5.35;2.28;;;;;;;;;;4874949;29;20053;-67
2022/08/15 06:54:44;;;;;;;3.30;2.10;;;;;;;;;;4875015;29;20061;-67
2022/08/15 06:57:31;;;;;;;4.25;1.92;;;;;;;;;;4856342;29;20427;-67
2022/08/15 07:00:11;;;;;;;5.78;1.95;;;;;;;;;;4890904;29;20056;-68
2022/08/15 07:03:54;;;;;;;8.63;2.20;;;;;;;;;;4892619;29;20052;-68
2022/08/15 07:06:39;;;;;;;7.43;2.17;;;;;;;;;;4855902;29;20057;-66
2022/08/15 07:09:27;;;;;;;3.80;1.73;;;;;;;;;;4870586;29;20054;-67
2022/08/15 07:12:22;;;;;;;6.35;1.75;;;;;;;;;;4856598;29;20522;-67
2022/08/15 07:15:18;;;;;;;4.75;1.90;;;;;;;;;;4887097;29;20123;-67
2022/08/15 07:17:53;;;;;;;7.78;2.40;;;;;;;;;;4873021;29;20090;-67
2022/08/15 07:20:31;;;;;;;4.60;2.72;;;;;;;;;;4855139;29;20061;-67
2022/08/15 07:23:16;;;;;;;5.43;2.10;;;;;;;;;;4837430;29;20059;-67
2022/08/15 07:25:50;;;;;;;4.25;2.40;;;;;;;;;;4867727;29;20085;-67
2022/08/15 07:28:28;;;;;;;9.30;2.60;;;;;;;;;;4837560;29;20065;-67
2022/08/15 07:31:04;;;;;;;5.53;2.20;;;;;;;;;;4855931;29;20060;-66
2022/08/15 07:33:39;;;;;;;4.55;2.00;;;;;;;;;;4855695;29;20061;-67
2022/08/15 07:36:26;;;;;;;5.90;2.17;;;;;;;;;;4871231;29;20054;-66
2022/08/15 07:39:26;;;;;;;4.22;2.28;;;;;;;;;;4856239;29;20065;-66
2022/08/15 07:42:21;;;;;;;4.00;1.95;;;;;;;;;;4863837;29;20049;-67
2022/08/15 07:45:19;;;;;;;3.95;1.33;;;;;;;;;;4927884;29;20448;-67
2022/08/15 07:48:31;;;;;;;4.35;2.45;;;;;;;;;;4892849;29;20063;-67
2022/08/15 07:51:20;;;;;;;4.55;1.88;;;;;;;;;;4892827;29;20177;-67
2022/08/15 07:54:22;;;;;;;4.55;2.20;;;;;;;;;;4874120;29;20076;-68
2022/08/15 07:57:27;;;;;;;7.85;2.13;;;;;;;;;;4857516;29;20620;-67
2022/08/15 08:00:28;;;;;;;3.42;2.10;;;;;;;;;;4882422;29;20067;-67
2022/08/15 08:03:31;;;;;;;8.25;2.40;;;;;;;;;;4930502;29;20056;-67
2022/08/15 08:06:11;;;;;;;3.85;2.03;;;;;;;;;;4946781;28;20059;-67
2022/08/15 08:09:20;;;;;;;4.18;1.38;;;;;;;;;;4943070;28;20412;-67
2022/08/15 08:12:05;;;;;;;5.05;2.53;;;;;;;;;;4916036;29;20052;-66
2022/08/15 08:15:02;;;;;;;4.85;2.15;;;;;;;;;;4914456;29;20056;-68
2022/08/15 08:17:46;;;;;;;5.55;2.30;;;;;;;;;;4930415;29;20056;-68
2022/08/15 08:20:34;;;;;;;7.05;2.45;;;;;;;;;;4930270;28;20052;-68
2022/08/15 08:23:12;;;;;;;6.25;2.10;;;;;;;;;;4920133;29;20564;-67
2022/08/15 08:26:16;;;;;;;4.90;2.30;;;;;;;;;;4911778;29;20062;-67
2022/08/15 08:28:59;;;;;;;4.45;1.95;;;;;;;;;;4949791;29;20535;-68
2022/08/15 08:31:54;;;;;;;5.15;2.45;;;;;;;;;;4949566;29;20059;-68
2022/08/15 08:34:39;;;;;;;7.65;2.40;;;;;;;;;;4949021;29;20062;-68
2022/08/15 08:37:31;;;;;;;6.75;2.30;;;;;;;;;;4949487;28;20055;-68
2022/08/15 08:43:33;;;;;;;5.90;2.33;;;;;;;;;;4952989;29;20056;-68
2022/08/15 08:46:35;;;;;;;6.28;2.33;;;;;;;;;;4972231;28;20058;-67
2022/08/15 08:49:11;;;;;;;4.20;2.42;;;;;;;;;;4956622;28;20047;-68
2022/08/15 08:52:18;;;;;;;6.57;2.63;;;;;;;;;;4972312;28;20121;-67
2022/08/15 08:55:09;;;;;;;5.68;2.05;;;;;;;;;;4938094;28;20576;-68
2022/08/15 08:57:46;;;;;;;;;;;;;;;;;;4969265;28;20053;-67
2022/08/15 09:00:23;;;;;;;6.65;2.90;;;;;;;;;;4998160;28;19921;-67
2022/08/15 09:03:06;;;;;;;7.10;2.33;;;;;;;;;;5030777;28;20054;-67
2022/08/15 09:05:49;;;;;;;6.88;2.47;;;;;;;;;;5031081;28;20065;-67
2022/08/15 09:08:33;;;;;;;6.88;2.50;;;;;;;;;;5030884;28;20049;-67
2022/08/15 09:11:16;;;;;;;4.97;2.63;;;;;;;;;;4986602;28;20053;-68
2022/08/15 09:13:53;;;;;;;4.85;2.50;;;;;;;;;;4997528;28;20056;-68
2022/08/15 09:16:32;;;;;;;9.50;3.05;;;;;;;;;;5030692;28;20049;-67
2022/08/15 09:19:12;;;;;;;7.63;2.47;;;;;;;;;;5030964;28;20120;-68
2022/08/15 09:21:43;;;;;;;4.00;1.67;;;;;;;;;;4998059;28;20386;-68
2022/08/15 09:24:15;;;;;;;6.03;2.25;;;;;;;;;;4991093;28;20502;-68
2022/08/15 09:27:17;;;;;;;6.47;2.38;;;;;;;;;;4933102;29;20496;-67
2022/08/15 09:29:54;;;;;;;4.82;2.47;;;;;;;;;;4933319;29;20066;-67
2022/08/15 09:32:28;;;;;;;3.53;1.83;;;;;;;;;;4917234;29;20397;-67
2022/08/15 09:35:34;;;;;;;5.18;2.10;;;;;;;;;;4933038;29;20056;-68
2022/08/15 09:38:07;;;;;;;8.38;2.22;;;;;;;;;;4933165;29;20056;-67
2022/08/15 09:41:15;;;;;;;3.97;2.15;;;;;;;;;;4895034;29;20061;-68
2022/08/15 09:44:09;;;;;;;6.63;2.42;;;;;;;;;;4913711;29;20056;-69
2022/08/15 09:47:14;;;;;;;4.45;2.20;;;;;;;;;;4913892;29;20056;-68
2022/08/15 09:49:57;;;;;;;6.10;2.15;;;;;;;;;;4912687;29;20141;-68
2022/08/15 09:53:03;;;;;;;4.88;2.38;;;;;;;;;;4971246;28;20071;-67
2022/08/15 09:55:46;;;;;;;6.47;2.88;;;;;;;;;;4971364;28;20058;-68
2022/08/15 09:58:31;;;;;;;5.53;2.25;;;;;;;;;;4942543;29;20055;-69
2022/08/15 10:01:31;;;;;;;3.85;2.20;;;;;;;;;;4957833;28;20054;-69
2022/08/15 10:04:10;;;;;;;3.58;2.17;;;;;;;;;;4939159;28;20059;-67
2022/08/15 10:07:02;;;;;;;6.57;2.08;;;;;;;;;;4971168;28;20133;-69
2022/08/15 10:09:36;;;;;;;4.60;2.40;;;;;;;;;;4970706;28;20054;-67
2022/08/15 10:12:12;;;;;;;7.50;2.05;;;;;;;;;;4964376;28;20420;-68
2022/08/15 10:15:03;;;;;;;5.40;2.80;;;;;;;;;;4951217;29;20062;-68
2022/08/15 10:17:37;;;;;;;6.18;2.00;;;;;;;;;;4949333;28;20368;-68
2022/08/15 10:20:29;;;;;;;6.30;2.45;;;;;;;;;;4933362;29;20528;-69
2022/08/15 10:23:00;;;;;;;4.93;2.38;;;;;;;;;;4951689;28;20047;-69
2022/08/15 10:25:39;;;;;;;3.33;2.40;;;;;;;;;;4951277;28;20163;-68
2022/08/15 10:28:11;;;;;;;4.50;2.30;;;;;;;;;;4931734;28;20071;-69
2022/08/15 10:31:03;;;;;;;5.68;2.35;;;;;;;;;;4970565;28;20569;-68
2022/08/15 10:33:44;;;;;;;6.75;2.38;;;;;;;;;;4970254;28;20519;-68
2022/08/15 10:36:36;;;;;;;3.70;2.08;;;;;;;;;;4970596;28;20059;-68
2022/08/15 10:39:44;;;;;;;5.07;2.47;;;;;;;;;;4970131;28;20055;-68
2022/08/15 10:42:27;;;;;;;5.85;2.42;;;;;;;;;;4899699;29;20059;-68
2022/08/15 10:45:17;;;;;;;5.68;2.22;;;;;;;;;;4931918;29;20059;-68
2022/08/15 10:48:24;;;;;;;5.22;2.00;;;;;;;;;;4933398;28;20527;-68
2022/08/15 10:51:34;;;;;;;5.85;2.38;;;;;;;;;;4937759;28;20067;-67
2022/08/15 10:54:38;;;;;;;10.13;2.42;;;;;;;;;;4950733;28;20055;-69
2022/08/15 10:57:10;;;;;;;10.57;2.60;;;;;;;;;;4950171;28;20062;-68
2022/08/15 10:59:49;;;;;;;5.75;1.98;;;;;;;;;;4950917;28;20055;-68
2022/08/15 11:02:49;;;;;;;6.05;2.38;;;;;;;;;;4921292;28;20055;-66
2022/08/15 11:05:39;;;;;;;4.72;2.08;;;;;;;;;;4964601;28;20069;-67
2022/08/15 11:08:16;;;;;;;5.88;1.50;;;;;;;;;;4978687;28;20402;-67
2022/08/15 11:10:48;;;;;;;4.13;2.00;;;;;;;;;;4989701;28;20442;-68
2022/08/15 11:13:23;;;;;;;3.00;2.20;;;;;;;;;;4988839;28;20054;-67
2022/08/15 11:16:13;;;;;;;8.68;2.35;;;;;;;;;;4949879;29;20051;-68
2022/08/15 11:19:22;;;;;;;3.15;1.73;;;;;;;;;;4962960;28;20681;-67
2022/08/15 11:22:18;;;;;;;4.05;2.33;;;;;;;;;;4996724;28;20054;-68
2022/08/15 11:25:00;;;;;;;4.85;2.30;;;;;;;;;;5008831;28;20050;-69
2022/08/15 11:27:31;;;;;;;4.53;2.08;;;;;;;;;;5008624;28;20062;-68
2022/08/15 11:30:08;;;;;;;6.45;2.30;;;;;;;;;;4960619;28;20072;-67
2022/08/15 11:32:52;;;;;;;6.65;2.50;;;;;;;;;;5008633;28;20061;-67
2022/08/15 11:35:31;;;;;;;6.10;2.40;;;;;;;;;;4940827;28;20054;-67
2022/08/15 11:38:06;;;;;;;5.43;2.20;;;;;;;;;;4989200;28;20066;-68
2022/08/15 11:40:55;;;;;;;8.98;2.85;;;;;;;;;;4974942;28;20058;-68
2022/08/15 11:43:26;;;;;;;8.68;2.30;;;;;;;;;;4973280;28;20054;-68
2022/08/15 11:45:57;;;;;;;5.38;2.40;;;;;;;;;;4988822;28;20069;-68
2022/08/15 11:48:33;;;;;;;5.78;2.30;;;;;;;;;;4989036;28;20076;-68
2022/08/15 11:51:21;;;;;;;5.53;2.50;;;;;;;;;;4988756;28;20046;-68
2022/08/15 11:54:16;;;;;;;7.55;2.60;;;;;;;;;;5011259;28;20060;-67
2022/08/15 11:57:07;;;;;;;4.95;2.35;;;;;;;;;;5047202;28;20045;-68
2022/08/15 12:00:06;;;;;;;6.55;2.58;;;;;;;;;;5027891;28;20517;-68
2022/08/15 12:02:38;;;;;;;4.22;2.05;;;;;;;;;;5027833;28;20453;-68
2022/08/15 12:05:16;;;;;;;6.45;2.50;;;;;;;;;;5027677;28;20050;-69
2022/08/15 12:08:08;;;;;;;5.60;2.45;;;;;;;;;;5028034;28;20065;-68
2022/08/15 12:11:18;;;;;;;5.55;2.40;;;;;;;;;;5027839;28;20069;-68
2022/08/15 12:14:01;;;;;;;4.60;2.40;;;;;;;;;;5048312;28;20048;-68
2022/08/15 12:16:43;;;;;;;7.03;3.00;;;;;;;;;;5071981;28;20081;-68
2022/08/15 12:19:35;;;;;;;5.05;2.65;;;;;;;;;;5071870;28;20155;-68
2022/08/15 12:22:39;;;;;;;5.35;1.77;;;;;;;;;;5051324;28;20420;-68
2022/08/15 12:25:23;;;;;;;5.65;2.50;;;;;;;;;;5051188;28;20049;-67
2022/08/15 12:28:13;;;;;;;4.82;2.33;;;;;;;;;;5051834;28;20061;-68
2022/08/15 12:31:23;;;;;;;5.57;2.65;;;;;;;;;;5011845;28;20162;-67
2022/08/15 12:34:12;;;;;;;7.07;2.25;;;;;;;;;;5011986;28;20061;-67
2022/08/15 12:37:01;;;;;;;7.50;2.53;;;;;;;;;;4976533;28;20049;-67
2022/08/15 12:39:38;;;;;;;4.75;2.28;;;;;;;;;;5051465;28;20052;-68
2022/08/15 12:42:33;;;;;;;11.40;2.53;;;;;;;;;;5031219;28;20049;-68
2022/08/15 12:45:24;;;;;;;8.52;3.03;;;;;;;;;;5018024;28;20038;-68
2022/08/15 12:48:11;;;;;;;5.60;1.73;;;;;;;;;;5031282;28;20413;-69
2022/08/15 12:50:55;;;;;;;8.57;2.33;;;;;;;;;;5031138;28;20502;-67
2022/08/15 12:53:26;;;;;;;6.90;2.50;;;;;;;;;;5022262;28;20065;-68
2022/08/15 12:55:57;;;;;;;6.10;2.28;;;;;;;;;;4978854;28;20541;-69
2022/08/15 12:58:27;;;;;;;4.47;2.35;;;;;;;;;;5011462;28;20155;-68
2022/08/15 13:01:00;;;;;;;10.18;2.42;;;;;;;;;;4962667;28;20124;-68
2022/08/15 13:03:43;;;;;;;5.90;2.03;;;;;;;;;;4993711;28;20045;-67
2022/08/15 13:06:42;;;;;;;8.70;2.45;;;;;;;;;;5031187;28;20070;-67
2022/08/15 13:09:31;;;;;;;4.80;2.20;;;;;;;;;;5028313;28;20070;-68
2022/08/15 13:12:04;;;;;;;3.83;2.20;;;;;;;;;;5014928;28;20049;-68
2022/08/15 13:14:46;;;;;;;4.88;2.63;;;;;;;;;;5030506;28;20049;-68
2022/08/15 13:17:17;;;;;;;5.20;2.40;;;;;;;;;;5030789;28;20053;-68
2022/08/15 13:25:46;;;;;;;5.05;2.63;;;;;;;;;;5050596;28;20053;-66
2022/08/15 13:28:25;;;;;;;5.18;2.75;;;;;;;;;;5030519;28;20053;-67
2022/08/15 13:31:04;;;;;;;7.20;3.42;;;;;;;;;;4998118;28;20057;-67
2022/08/15 13:33:37;;;;;;;6.13;2.47;;;;;;;;;;5014480;28;20057;-67
2022/08/15 13:36:16;;;;;;;6.80;2.88;;;;;;;;;;5030483;28;20544;-67
2022/08/15 13:39:05;;;;;;;7.47;2.00;;;;;;;;;;5030092;28;20409;-66
2022/08/15 13:41:43;;;;;;;8.18;2.70;;;;;;;;;;5030450;28;20505;-66
2022/08/15 13:44:34;;;;;;;6.88;3.08;;;;;;;;;;4990892;28;20061;-67
2022/08/15 13:47:06;;;;;;;4.80;3.30;;;;;;;;;;5001055;28;20053;-67
2022/08/15 13:49:39;;;;;;;8.65;2.50;;;;;;;;;;4977979;28;20050;-66
2022/08/15 13:52:11;;;;;;;5.35;2.65;;;;;;;;;;5010367;28;20142;-68
2022/08/15 13:55:01;;;;;;;6.32;2.47;;;;;;;;;;5010853;28;20050;-66
2022/08/15 13:57:42;;;;;;;4.95;3.42;;;;;;;;;;5010223;28;20085;-66
2022/08/15 14:00:33;;;;;;;5.07;3.05;;;;;;;;;;5010393;28;20061;-66
2022/08/15 14:03:26;;;;;;;4.28;2.13;;;;;;;;;;5010136;28;20477;-66
2022/08/15 14:06:01;;;;;;;5.10;2.22;;;;;;;;;;5029062;28;20468;-67
2022/08/15 14:08:34;;;;;;;4.32;2.45;;;;;;;;;;5050123;28;20057;-67
2022/08/15 14:11:25;;;;;;;9.00;2.70;;;;;;;;;;5049778;28;20053;-66
2022/08/15 14:14:03;;;;;;;10.65;2.78;;;;;;;;;;5049382;28;20060;-65
2022/08/15 14:16:53;;;;;;;6.22;2.50;;;;;;;;;;5049304;28;20512;-67
2022/08/15 14:19:29;;;;;;;5.32;2.85;;;;;;;;;;5064930;28;20064;-65
2022/08/15 14:22:20;;;;;;;4.88;2.67;;;;;;;;;;5029724;28;20045;-66
2022/08/15 14:24:58;;;;;;;6.10;2.70;;;;;;;;;;5032370;28;20041;-66
2022/08/15 14:27:50;;;;;;;5.82;2.70;;;;;;;;;;5009243;28;20541;-66
2022/08/15 14:30:25;;;;;;;4.25;2.38;;;;;;;;;;5009469;28;20050;-65
2022/08/15 14:33:03;;;;;;;5.30;2.78;;;;;;;;;;5009802;28;20057;-66
2022/08/15 14:35:36;;;;;;;7.82;2.90;;;;;;;;;;4989041;28;20068;-66
2022/08/15 14:38:13;;;;;;;5.28;2.35;;;;;;;;;;4973368;28;20474;-67
2022/08/15 14:40:49;;;;;;;7.68;2.97;;;;;;;;;;4989768;28;20059;-65
2022/08/15 14:43:19;;;;;;;4.95;2.90;;;;;;;;;;4975988;28;20503;-66
2022/08/15 14:45:52;;;;;;;5.05;2.95;;;;;;;;;;4950976;29;20563;-66
2022/08/15 14:48:43;;;;;;;8.10;3.05;;;;;;;;;;4951131;29;20066;-66
2022/08/15 14:51:26;;;;;;;9.55;2.97;;;;;;;;;;4950854;29;20063;-65
2022/08/15 14:54:19;;;;;;;6.25;2.88;;;;;;;;;;4966241;28;20055;-65
2022/08/15 14:57:11;;;;;;;5.20;2.95;;;;;;;;;;4989507;28;20055;-65
2022/08/15 14:59:42;;;;;;;9.55;3.08;;;;;;;;;;4989566;28;20058;-66
2022/08/15 15:02:33;;;;;;;7.93;3.63;;;;;;;;;;5018121;28;20048;-66
2022/08/15 15:05:11;;;;;;;6.05;2.70;;;;;;;;;;4976232;28;20046;-66
2022/08/15 15:07:44;;;;;;;7.05;3.05;;;;;;;;;;5044795;28;20184;-64
2022/08/15 15:10:30;;;;;;;5.40;3.00;;;;;;;;;;5048785;28;20060;-65
2022/08/15 15:13:04;;;;;;;7.97;3.67;;;;;;;;;;5015055;28;20064;-65
2022/08/15 15:15:40;;;;;;;7.75;2.40;;;;;;;;;;4987723;28;20432;-65
2022/08/15 15:18:24;;;;;;;5.95;2.95;;;;;;;;;;5015030;28;20049;-65
2022/08/15 15:21:15;;;;;;;5.32;3.20;;;;;;;;;;5048401;28;20056;-64
2022/08/15 15:23:49;;;;;;;5.40;2.92;;;;;;;;;;5048255;28;20053;-65
2022/08/15 15:26:21;;;;;;;4.82;2.78;;;;;;;;;;5048232;28;20052;-65
2022/08/15 15:29:08;;;;;;;4.03;2.67;;;;;;;;;;4998675;28;20428;-65
2022/08/15 15:31:40;;;;;;;6.43;3.15;;;;;;;;;;4988579;28;20050;-65
2022/08/15 15:34:12;;;;;;;8.15;3.08;;;;;;;;;;4949889;29;20059;-65
2022/08/15 15:36:47;;;;;;;7.72;3.30;;;;;;;;;;4933850;29;20625;-64
2022/08/15 15:39:26;;;;;;;5.78;3.45;;;;;;;;;;4949922;29;20051;-65
2022/08/15 15:42:14;;;;;;;8.85;3.30;;;;;;;;;;4930157;28;20066;-65
2022/08/15 15:44:47;;;;;;;5.82;2.95;;;;;;;;;;4969535;28;20070;-65
2022/08/15 15:47:21;;;;;;;7.15;3.20;;;;;;;;;;4933565;29;20044;-66
2022/08/15 15:49:56;;;;;;;4.18;3.10;;;;;;;;;;4921094;29;20059;-65
2022/08/15 15:52:28;;;;;;;5.55;3.28;;;;;;;;;;4949727;28;20055;-66
2022/08/15 15:55:02;;;;;;;4.28;3.00;;;;;;;;;;4937999;28;20061;-64
2022/08/15 15:57:37;;;;;;;6.45;3.03;;;;;;;;;;4988373;28;20046;-65
2022/08/15 16:00:28;;;;;;;5.80;2.47;;;;;;;;;;4988975;28;20430;-65
2022/08/15 16:03:08;;;;;;;5.80;3.15;;;;;;;;;;4988640;28;20062;-65
2022/08/15 16:05:45;;;;;;;5.75;3.05;;;;;;;;;;4988659;28;20081;-65
2022/08/15 16:08:37;;;;;;;;;;;;;;;;;;4988791;28;20069;-66
2022/08/15 16:11:21;;;;;;;8.13;3.22;;;;;;;;;;4951137;28;20656;-65
2022/08/15 16:14:20;;;;;;;9.13;3.15;;;;;;;;;;4968420;28;20120;-66
2022/08/15 16:16:59;;;;;;;11.10;3.63;;;;;;;;;;4977411;28;20062;-65
2022/08/15 16:20:04;;;;;;;5.97;3.53;;;;;;;;;;4988424;28;20061;-65
2022/08/15 16:23:22;;;;;;;5.22;3.00;;;;;;;;;;5007788;28;20058;-65
2022/08/15 16:26:25;;;;;;;6.55;2.45;;;;;;;;;;4968846;28;20407;-64
2022/08/15 16:29:08;;;;;;;7.43;3.63;;;;;;;;;;4953907;28;20543;-65
2022/08/15 16:31:55;;;;;;;5.75;3.40;;;;;;;;;;4988463;28;20050;-63
2022/08/15 16:34:37;;;;;;;7.80;3.70;;;;;;;;;;4962705;28;20045;-65